Time;durP1;ratioP1;P1;durP2;ratioP2;P2;SDS_P1;SDS_P2;PMS_P1;PMS_P2;Temp;Humidity;BMP_temperature;BMP_pressure;BME280_temperature;BME280_humidity;BME280_pressure;Samples;Min_cycle;Max_cycle;Signal;HPM_P1;HPM_P2
2023/02/08 00:02:21;;;;;;;20.70;15.23;;;;;;;;;;5113631;28;20611;-60
2023/02/08 00:04:48;;;;;;;19.17;14.00;;;;;;;;;;5113542;28;20198;-60
2023/02/08 00:07:15;;;;;;;21.40;13.05;;;;;;;;;;5113781;28;20188;-60
2023/02/08 00:09:41;;;;;;;23.35;14.13;;;;;;;;;;5113747;28;20284;-60
2023/02/08 00:12:08;;;;;;;21.83;13.77;;;;;;;;;;5113623;28;20237;-60
2023/02/08 00:14:35;;;;;;;20.60;15.30;;;;;;;;;;5113721;28;20198;-60
2023/02/08 00:17:02;;;;;;;20.92;14.52;;;;;;;;;;5113482;28;20275;-60
2023/02/08 00:19:31;;;;;;;16.85;11.98;;;;;;;;;;5113389;28;20630;-60
2023/02/08 00:21:58;;;;;;;20.58;13.40;;;;;;;;;;5113537;28;20245;-60
2023/02/08 00:24:24;;;;;;;20.88;13.07;;;;;;;;;;5113513;28;20189;-60
2023/02/08 00:26:52;;;;;;;22.08;14.57;;;;;;;;;;5113493;28;20279;-60
2023/02/08 00:29:19;;;;;;;21.73;15.00;;;;;;;;;;5113389;28;20241;-60
2023/02/08 00:31:46;;;;;;;21.55;15.00;;;;;;;;;;5113429;28;20192;-60
2023/02/08 00:34:13;;;;;;;20.88;13.85;;;;;;;;;;5113164;28;20202;-60
2023/02/08 00:36:41;;;;;;;25.45;14.30;;;;;;;;;;5113625;28;20301;-60
2023/02/08 00:39:08;;;;;;;17.52;12.20;;;;;;;;;;5113362;28;20184;-60
2023/02/08 00:41:35;;;;;;;15.00;12.57;;;;;;;;;;5113203;28;20223;-60
2023/02/08 00:44:02;;;;;;;19.85;13.18;;;;;;;;;;5113238;28;20188;-60
2023/02/08 00:46:29;;;;;;;22.23;13.05;;;;;;;;;;5113991;28;20732;-60
2023/02/08 00:48:56;;;;;;;22.30;14.43;;;;;;;;;;5117621;28;20185;-60
2023/02/08 00:51:23;;;;;;;18.52;12.43;;;;;;;;;;5117432;28;20195;-60
2023/02/08 00:53:51;;;;;;;16.38;12.45;;;;;;;;;;5117290;28;20190;-60
2023/02/08 00:56:18;;;;;;;22.08;12.85;;;;;;;;;;5117603;28;20188;-60
2023/02/08 00:58:45;;;;;;;21.52;12.52;;;;;;;;;;5117120;28;20301;-60
2023/02/08 01:01:12;;;;;;;21.83;14.30;;;;;;;;;;5116916;28;20215;-61
2023/02/08 01:03:40;;;;;;;18.67;14.43;;;;;;;;;;5117285;28;20188;-61
2023/02/08 01:06:08;;;;;;;17.60;13.70;;;;;;;;;;5117489;28;20484;-61
2023/02/08 01:08:35;;;;;;;19.15;12.95;;;;;;;;;;5117129;28;20584;-60
2023/02/08 01:11:04;;;;;;;17.77;12.93;;;;;;;;;;5116955;28;20199;-60
2023/02/08 01:13:31;;;;;;;18.52;12.23;;;;;;;;;;5116837;28;20185;-60
2023/02/08 01:16:06;;;;;;;18.60;12.20;;;;;;;;;;5117029;28;20191;-60
2023/02/08 01:18:33;;;;;;;20.67;12.25;;;;;;;;;;5117050;28;20197;-60
2023/02/08 01:21:04;;;;;;;17.77;12.60;;;;;;;;;;5116771;28;20238;-60
2023/02/08 01:23:31;;;;;;;19.40;11.32;;;;;;;;;;5116829;28;20567;-60
2023/02/08 01:25:57;;;;;;;19.58;12.40;;;;;;;;;;5116631;28;20195;-61
2023/02/08 01:28:26;;;;;;;22.45;13.35;;;;;;;;;;5116615;28;20220;-60
2023/02/08 01:30:53;;;;;;;15.65;11.38;;;;;;;;;;5116347;28;20291;-60
2023/02/08 01:33:20;;;;;;;18.13;12.20;;;;;;;;;;5116218;28;20194;-60
2023/02/08 01:35:50;;;;;;;23.13;12.23;;;;;;;;;;5116112;28;20279;-61
2023/02/08 01:38:17;;;;;;;19.27;12.05;;;;;;;;;;5116249;28;20275;-60
2023/02/08 01:40:43;;;;;;;18.25;12.15;;;;;;;;;;5115708;28;20188;-60
2023/02/08 01:43:16;;;;;;;16.75;12.35;;;;;;;;;;5115759;28;20188;-60
2023/02/08 01:45:45;;;;;;;21.05;12.80;;;;;;;;;;5115957;28;20311;-61
2023/02/08 01:48:13;;;;;;;17.90;12.40;;;;;;;;;;5115883;28;20284;-60
2023/02/08 01:50:43;;;;;;;15.88;11.52;;;;;;;;;;5115907;28;20195;-60
2023/02/08 01:53:10;;;;;;;17.08;11.90;;;;;;;;;;5115640;28;20285;-60
2023/02/08 01:55:39;;;;;;;15.95;11.00;;;;;;;;;;5115811;28;20189;-60
2023/02/08 01:58:08;;;;;;;14.95;10.80;;;;;;;;;;5115507;28;20188;-60
2023/02/08 02:00:35;;;;;;;16.40;11.43;;;;;;;;;;5115543;28;20192;-60
2023/02/08 02:03:04;;;;;;;18.52;12.52;;;;;;;;;;5115482;28;20647;-60
2023/02/08 02:05:34;;;;;;;17.38;11.73;;;;;;;;;;5115411;28;20184;-60
2023/02/08 02:08:01;;;;;;;17.42;12.18;;;;;;;;;;5115580;28;20188;-60
2023/02/08 02:10:31;;;;;;;17.23;11.65;;;;;;;;;;5115371;28;20260;-61
2023/02/08 02:13:02;;;;;;;15.77;11.63;;;;;;;;;;5115208;28;20214;-60
2023/02/08 02:15:29;;;;;;;16.40;10.88;;;;;;;;;;5115710;28;20275;-61
2023/02/08 02:17:56;;;;;;;19.50;12.05;;;;;;;;;;5115177;28;20188;-60
2023/02/08 02:20:27;;;;;;;16.33;12.05;;;;;;;;;;5115134;28;20279;-60
2023/02/08 02:23:19;;;;;;;19.85;11.95;;;;;;;;;;5115227;28;20586;-60
2023/02/08 02:25:59;;;;;;;14.75;11.02;;;;;;;;;;5115238;28;20280;-60
2023/02/08 02:28:36;;;;;;;17.50;12.05;;;;;;;;;;5115124;28;20655;-60
2023/02/08 02:31:22;;;;;;;16.70;11.50;;;;;;;;;;5115102;28;20288;-61
2023/02/08 02:33:54;;;;;;;14.88;10.90;;;;;;;;;;5115284;28;20198;-60
2023/02/08 02:36:26;;;;;;;15.27;10.70;;;;;;;;;;5115003;28;20279;-60
2023/02/08 02:39:02;;;;;;;15.18;11.50;;;;;;;;;;5114831;28;20742;-60
2023/02/08 02:44:23;;;;;;;22.42;12.40;;;;;;;;;;5115044;28;20670;-60
2023/02/08 02:46:53;;;;;;;21.67;11.27;;;;;;;;;;5114630;28;20220;-60
2023/02/08 02:49:25;;;;;;;16.33;11.75;;;;;;;;;;5114611;28;20220;-60
2023/02/08 02:51:56;;;;;;;18.63;12.25;;;;;;;;;;5114929;28;20277;-60
2023/02/08 02:54:25;;;;;;;13.77;10.98;;;;;;;;;;5115043;28;20192;-60
2023/02/08 02:56:54;;;;;;;14.52;11.10;;;;;;;;;;5114760;28;20287;-60
2023/02/08 02:59:22;;;;;;;14.82;10.35;;;;;;;;;;5114702;28;20189;-60
2023/02/08 03:01:49;;;;;;;17.35;11.68;;;;;;;;;;5114195;28;20837;-60
2023/02/08 03:04:18;;;;;;;14.18;11.77;;;;;;;;;;5114253;28;20305;-60
2023/02/08 03:06:55;;;;;;;17.00;11.05;;;;;;;;;;5114353;28;20219;-60
2023/02/08 03:09:36;;;;;;;19.23;10.73;;;;;;;;;;5113727;28;20192;-60
2023/02/08 03:12:06;;;;;;;17.63;12.32;;;;;;;;;;5111113;28;20244;-60
2023/02/08 03:14:35;;;;;;;17.48;11.50;;;;;;;;;;5114203;28;20183;-60
2023/02/08 03:17:16;;;;;;;19.73;12.13;;;;;;;;;;5114231;28;20188;-61
2023/02/08 03:19:46;;;;;;;19.40;12.10;;;;;;;;;;5114170;28;20276;-60
2023/02/08 03:22:16;;;;;;;18.10;11.20;;;;;;;;;;5114160;28;20208;-60
2023/02/08 03:24:46;;;;;;;16.95;10.93;;;;;;;;;;5113883;28;20279;-61
2023/02/08 03:27:17;;;;;;;17.48;10.50;;;;;;;;;;5113702;28;20189;-60
2023/02/08 03:29:49;;;;;;;17.25;12.00;;;;;;;;;;5114008;28;20210;-60
2023/02/08 03:32:18;;;;;;;16.05;11.10;;;;;;;;;;5113892;28;20194;-61
2023/02/08 03:34:47;;;;;;;15.05;10.95;;;;;;;;;;5113693;28;20196;-60
2023/02/08 03:37:19;;;;;;;13.80;10.52;;;;;;;;;;5113670;28;20192;-60
2023/02/08 03:39:47;;;;;;;14.55;10.40;;;;;;;;;;5113864;28;20193;-60
2023/02/08 03:42:17;;;;;;;16.67;10.52;;;;;;;;;;5113544;28;20220;-60
2023/02/08 03:44:47;;;;;;;15.88;11.80;;;;;;;;;;5113483;28;20195;-60
2023/02/08 03:47:17;;;;;;;19.13;11.30;;;;;;;;;;5113811;28;20188;-60
2023/02/08 03:49:45;;;;;;;18.17;11.63;;;;;;;;;;5113466;28;20188;-60
2023/02/08 03:52:12;;;;;;;19.60;12.05;;;;;;;;;;5113735;28;20239;-60
2023/02/08 03:54:43;;;;;;;19.05;10.75;;;;;;;;;;5113577;28;20283;-60
2023/02/08 03:57:13;;;;;;;12.55;9.90;;;;;;;;;;5113366;28;20192;-60
2023/02/08 03:59:41;;;;;;;15.40;10.43;;;;;;;;;;5113485;28;20228;-60
2023/02/08 04:02:10;;;;;;;19.45;11.07;;;;;;;;;;5112976;28;20222;-60
2023/02/08 04:04:38;;;;;;;16.73;12.10;;;;;;;;;;5113030;28;20539;-60
2023/02/08 04:07:05;;;;;;;16.63;11.50;;;;;;;;;;5113119;28;20188;-60
2023/02/08 04:09:32;;;;;;;15.60;10.48;;;;;;;;;;5113220;28;20644;-60
2023/02/08 04:12:00;;;;;;;14.73;10.98;;;;;;;;;;5112987;28;20529;-60
2023/02/08 04:14:27;;;;;;;14.95;11.10;;;;;;;;;;5113025;28;20189;-60
2023/02/08 04:16:54;;;;;;;20.67;12.60;;;;;;;;;;5112720;28;20283;-60
2023/02/08 04:19:21;;;;;;;18.52;11.75;;;;;;;;;;5113290;28;20242;-60
2023/02/08 04:21:48;;;;;;;16.40;11.32;;;;;;;;;;5112941;28;20215;-60
2023/02/08 04:24:15;;;;;;;18.10;11.32;;;;;;;;;;5112924;28;20555;-60
2023/02/08 04:26:42;;;;;;;18.52;11.25;;;;;;;;;;5112938;28;20190;-60
2023/02/08 04:29:10;;;;;;;16.15;10.98;;;;;;;;;;5112726;28;20185;-60
2023/02/08 04:31:37;;;;;;;17.40;11.25;;;;;;;;;;5112610;28;20659;-60
2023/02/08 04:34:04;;;;;;;17.08;11.90;;;;;;;;;;5112962;28;20184;-60
2023/02/08 04:36:31;;;;;;;15.77;11.38;;;;;;;;;;5112983;28;20711;-60
2023/02/08 04:38:58;;;;;;;18.38;12.48;;;;;;;;;;5112819;28;20275;-60
2023/02/08 04:41:25;;;;;;;15.18;11.18;;;;;;;;;;5112707;28;20184;-60
2023/02/08 04:43:52;;;;;;;19.75;11.30;;;;;;;;;;5112795;28;20188;-60
2023/02/08 04:46:20;;;;;;;14.38;10.45;;;;;;;;;;5112504;28;20598;-60
2023/02/08 04:48:47;;;;;;;16.83;11.15;;;;;;;;;;5112890;28;20188;-60
2023/02/08 04:51:14;;;;;;;17.25;11.23;;;;;;;;;;5112868;28;20188;-60
2023/02/08 04:53:41;;;;;;;15.30;10.15;;;;;;;;;;5112615;28;20271;-60
2023/02/08 04:56:09;;;;;;;15.88;10.65;;;;;;;;;;5112720;28;20188;-60
2023/02/08 04:58:36;;;;;;;17.38;11.07;;;;;;;;;;5112451;28;20530;-60
2023/02/08 05:01:06;;;;;;;15.35;11.35;;;;;;;;;;5113127;28;20544;-62
2023/02/08 05:03:34;;;;;;;19.83;13.30;;;;;;;;;;5112645;28;20219;-60
2023/02/08 05:06:01;;;;;;;17.75;12.60;;;;;;;;;;5112662;28;20194;-60
2023/02/08 05:08:28;;;;;;;18.65;10.73;;;;;;;;;;5112533;28;20192;-60
2023/02/08 05:10:55;;;;;;;15.60;11.27;;;;;;;;;;5112518;28;20279;-60
2023/02/08 05:13:22;;;;;;;20.95;12.07;;;;;;;;;;5112487;28;20287;-60
2023/02/08 05:15:49;;;;;;;18.88;12.73;;;;;;;;;;5112638;28;20185;-60
2023/02/08 05:18:16;;;;;;;22.75;13.45;;;;;;;;;;5112614;28;20191;-60
2023/02/08 05:20:44;;;;;;;19.60;12.98;;;;;;;;;;5112421;28;20192;-60
2023/02/08 05:23:12;;;;;;;20.63;13.27;;;;;;;;;;5112493;28;20248;-60
2023/02/08 05:25:39;;;;;;;21.02;12.50;;;;;;;;;;5112376;28;20189;-60
2023/02/08 05:28:06;;;;;;;16.23;11.38;;;;;;;;;;5112685;28;20275;-60
2023/02/08 05:30:33;;;;;;;18.00;11.65;;;;;;;;;;5112372;28;20193;-60
2023/02/08 05:33:00;;;;;;;15.18;11.32;;;;;;;;;;5114748;28;20276;-59
2023/02/08 05:35:27;;;;;;;19.02;12.65;;;;;;;;;;5116087;28;20195;-59
2023/02/08 05:37:55;;;;;;;19.13;12.70;;;;;;;;;;5115964;28;20184;-59
2023/02/08 05:40:22;;;;;;;16.30;11.85;;;;;;;;;;5115767;28;20192;-60
2023/02/08 05:42:49;;;;;;;21.58;13.18;;;;;;;;;;5115817;28;20523;-58
2023/02/08 05:45:16;;;;;;;19.90;12.25;;;;;;;;;;5115694;28;20248;-59
2023/02/08 05:47:43;;;;;;;22.58;12.65;;;;;;;;;;5115779;28;20189;-59
2023/02/08 05:50:10;;;;;;;19.27;12.80;;;;;;;;;;5115707;28;20227;-59
2023/02/08 05:52:37;;;;;;;16.90;11.93;;;;;;;;;;5115535;28;20232;-60
2023/02/08 05:55:06;;;;;;;21.65;12.98;;;;;;;;;;5115773;28;20184;-60
2023/02/08 05:57:33;;;;;;;23.52;14.05;;;;;;;;;;5115877;28;20280;-60
2023/02/08 06:00:00;;;;;;;18.50;12.32;;;;;;;;;;5115735;28;20546;-60
2023/02/08 06:02:27;;;;;;;21.05;13.05;;;;;;;;;;5115574;28;20215;-61
2023/02/08 06:04:53;;;;;;;20.40;13.82;;;;;;;;;;5115323;28;20283;-60
2023/02/08 06:07:20;;;;;;;18.73;13.52;;;;;;;;;;5115283;28;20188;-60
2023/02/08 06:09:47;;;;;;;21.30;14.30;;;;;;;;;;5115558;28;20283;-60
2023/02/08 06:12:16;;;;;;;21.70;14.50;;;;;;;;;;5115476;28;20385;-60
2023/02/08 06:14:43;;;;;;;24.73;13.95;;;;;;;;;;5115350;28;20275;-60
2023/02/08 06:17:10;;;;;;;17.38;12.73;;;;;;;;;;5115335;28;20193;-60
2023/02/08 06:19:37;;;;;;;18.95;14.20;;;;;;;;;;5115383;28;20309;-60
2023/02/08 06:22:04;;;;;;;21.20;14.20;;;;;;;;;;5114930;28;20195;-60
2023/02/08 06:24:31;;;;;;;21.65;13.43;;;;;;;;;;5115358;28;20195;-60
2023/02/08 06:26:58;;;;;;;20.33;13.32;;;;;;;;;;5115299;28;20720;-60
2023/02/08 06:29:27;;;;;;;19.45;13.15;;;;;;;;;;5115060;28;20196;-60
2023/02/08 06:31:53;;;;;;;20.08;13.25;;;;;;;;;;5115005;28;20191;-60
2023/02/08 06:34:20;;;;;;;19.58;12.93;;;;;;;;;;5114835;28;20222;-60
2023/02/08 06:36:47;;;;;;;22.33;14.38;;;;;;;;;;5114742;28;20188;-60
2023/02/08 06:39:14;;;;;;;21.45;13.77;;;;;;;;;;5115000;28;20191;-60
2023/02/08 06:41:41;;;;;;;27.33;15.90;;;;;;;;;;5114867;28;20276;-60
2023/02/08 06:44:08;;;;;;;23.85;15.10;;;;;;;;;;5113621;28;20252;-60
2023/02/08 06:46:37;;;;;;;23.88;15.95;;;;;;;;;;5114669;28;20323;-60
2023/02/08 06:49:03;;;;;;;26.83;15.75;;;;;;;;;;5114588;28;20184;-60
2023/02/08 06:51:30;;;;;;;19.20;14.63;;;;;;;;;;5114990;28;20599;-60
2023/02/08 06:53:57;;;;;;;26.63;15.75;;;;;;;;;;5114682;28;20192;-60
2023/02/08 06:56:24;;;;;;;25.88;15.95;;;;;;;;;;5114457;28;20184;-60
2023/02/08 06:58:51;;;;;;;19.48;13.93;;;;;;;;;;5114363;28;20224;-60
2023/02/08 07:01:18;;;;;;;20.70;14.45;;;;;;;;;;5114301;28;20277;-60
2023/02/08 07:03:46;;;;;;;21.42;14.93;;;;;;;;;;5114351;28;20770;-60
2023/02/08 07:06:14;;;;;;;20.58;14.27;;;;;;;;;;5114432;28;20283;-60
2023/02/08 07:08:41;;;;;;;22.02;14.50;;;;;;;;;;5114308;28;20195;-60
2023/02/08 07:11:08;;;;;;;21.52;15.15;;;;;;;;;;5114246;28;20290;-60
2023/02/08 07:13:35;;;;;;;23.48;14.30;;;;;;;;;;5114272;28;20537;-60
2023/02/08 07:16:02;;;;;;;23.58;15.75;;;;;;;;;;5114021;28;20200;-60
2023/02/08 07:18:29;;;;;;;22.45;15.40;;;;;;;;;;5114285;28;20188;-60
2023/02/08 07:20:58;;;;;;;21.65;14.75;;;;;;;;;;5114007;28;20188;-60
2023/02/08 07:23:25;;;;;;;22.80;14.45;;;;;;;;;;5114037;28;20216;-60
2023/02/08 07:25:58;;;;;;;22.90;16.10;;;;;;;;;;5113769;28;20643;-60
2023/02/08 07:28:26;;;;;;;22.20;16.17;;;;;;;;;;5113811;28;20280;-60
2023/02/08 07:30:53;;;;;;;25.05;16.27;;;;;;;;;;5113749;28;20695;-60
2023/02/08 07:33:20;;;;;;;24.13;15.10;;;;;;;;;;5113804;28;20249;-60
2023/02/08 07:35:47;;;;;;;25.92;14.50;;;;;;;;;;5113821;28;20239;-60
2023/02/08 07:38:15;;;;;;;28.50;17.08;;;;;;;;;;5113690;28;20657;-60
2023/02/08 07:40:42;;;;;;;23.23;14.98;;;;;;;;;;5113518;28;20269;-60
2023/02/08 07:43:09;;;;;;;25.00;16.25;;;;;;;;;;5113316;28;20208;-60
2023/02/08 07:45:37;;;;;;;23.33;14.43;;;;;;;;;;5113351;28;20303;-60
2023/02/08 07:48:04;;;;;;;24.08;15.25;;;;;;;;;;5113570;28;20261;-60
2023/02/08 07:50:31;;;;;;;29.45;16.90;;;;;;;;;;5113505;28;20184;-60
2023/02/08 07:52:58;;;;;;;27.67;17.35;;;;;;;;;;5113499;28;20202;-60
2023/02/08 07:55:27;;;;;;;26.70;17.40;;;;;;;;;;5113063;28;20188;-60
2023/02/08 07:57:56;;;;;;;26.63;17.75;;;;;;;;;;5113171;28;20275;-60
2023/02/08 08:00:23;;;;;;;30.27;18.65;;;;;;;;;;5113331;28;20184;-60
2023/02/08 08:02:50;;;;;;;39.63;19.45;;;;;;;;;;5113451;28;20219;-60
2023/02/08 08:05:17;;;;;;;33.95;20.58;;;;;;;;;;5113235;28;20203;-60
2023/02/08 08:07:44;;;;;;;37.08;24.10;;;;;;;;;;5113113;28;20275;-57
2023/02/08 08:10:11;;;;;;;36.65;22.02;;;;;;;;;;5112757;28;20279;-60
2023/02/08 08:12:39;;;;;;;32.17;20.40;;;;;;;;;;5113228;28;20547;-63
2023/02/08 08:15:07;;;;;;;33.35;20.55;;;;;;;;;;5113143;28;20291;-61
2023/02/08 08:17:34;;;;;;;33.38;21.48;;;;;;;;;;5113051;28;20223;-61
2023/02/08 08:20:00;;;;;;;32.45;20.42;;;;;;;;;;5113010;28;20214;-60
2023/02/08 08:22:27;;;;;;;29.92;19.92;;;;;;;;;;5112856;28;20710;-61
2023/02/08 08:24:54;;;;;;;35.08;22.85;;;;;;;;;;5112751;28;20234;-60
2023/02/08 08:27:21;;;;;;;37.20;19.95;;;;;;;;;;5111930;28;20295;-63
2023/02/08 08:29:50;;;;;;;38.17;23.58;;;;;;;;;;5112654;28;20708;-62
2023/02/08 08:32:16;;;;;;;38.70;22.10;;;;;;;;;;5112891;28;20194;-62
2023/02/08 08:34:43;;;;;;;35.92;20.90;;;;;;;;;;5112731;28;20288;-61
2023/02/08 08:37:10;;;;;;;38.28;23.23;;;;;;;;;;5112523;28;20202;-63
2023/02/08 08:39:37;;;;;;;35.63;21.85;;;;;;;;;;5113054;28;20612;-63
2023/02/08 08:42:04;;;;;;;35.58;21.30;;;;;;;;;;5112766;28;20599;-62
2023/02/08 08:44:32;;;;;;;37.78;21.85;;;;;;;;;;5112132;28;20220;-62
2023/02/08 08:47:00;;;;;;;39.75;23.00;;;;;;;;;;5112677;28;20188;-63
2023/02/08 08:49:28;;;;;;;37.28;22.33;;;;;;;;;;5112539;28;20569;-61
2023/02/08 08:51:55;;;;;;;37.45;23.48;;;;;;;;;;5112480;28;20184;-64
2023/02/08 08:54:22;;;;;;;37.20;21.05;;;;;;;;;;5112568;28;20278;-61
2023/02/08 08:56:49;;;;;;;37.78;22.00;;;;;;;;;;5112483;28;20188;-59
2023/02/08 08:59:16;;;;;;;38.60;21.88;;;;;;;;;;5112587;28;20532;-61
2023/02/08 09:01:43;;;;;;;34.55;22.23;;;;;;;;;;5112907;28;20198;-61
2023/02/08 09:04:11;;;;;;;33.67;20.15;;;;;;;;;;5112205;28;20224;-61
2023/02/08 09:06:38;;;;;;;36.70;21.15;;;;;;;;;;5112257;28;20199;-62
2023/02/08 09:09:05;;;;;;;34.25;21.27;;;;;;;;;;5116084;28;20223;-63
2023/02/08 09:11:33;;;;;;;42.58;22.85;;;;;;;;;;5116541;28;20279;-63
2023/02/08 09:14:00;;;;;;;38.13;22.30;;;;;;;;;;5116063;28;20199;-61
2023/02/08 09:16:26;;;;;;;38.00;22.70;;;;;;;;;;5116388;28;20184;-61
2023/02/08 09:18:53;;;;;;;36.88;21.25;;;;;;;;;;5116159;28;20189;-63
2023/02/08 09:21:24;;;;;;;33.13;21.75;;;;;;;;;;5116199;28;20474;-62
2023/02/08 09:23:51;;;;;;;37.67;22.10;;;;;;;;;;5116211;28;20216;-61
2023/02/08 09:26:19;;;;;;;37.90;21.80;;;;;;;;;;5116259;28;20665;-58
2023/02/08 09:28:46;;;;;;;30.20;21.08;;;;;;;;;;5116369;28;20188;-59
2023/02/08 09:31:15;;;;;;;39.80;23.73;;;;;;;;;;5116095;28;20596;-61
2023/02/08 09:33:42;;;;;;;38.67;23.85;;;;;;;;;;5115883;28;20192;-61
2023/02/08 09:36:10;;;;;;;40.33;22.60;;;;;;;;;;5116077;28;20279;-63
2023/02/08 09:38:38;;;;;;;36.58;22.70;;;;;;;;;;5116281;28;20224;-60
2023/02/08 09:41:12;;;;;;;41.65;24.02;;;;;;;;;;5115982;28;20199;-62
2023/02/08 09:43:42;;;;;;;40.83;24.00;;;;;;;;;;5115484;28;20683;-62
2023/02/08 09:46:12;;;;;;;39.35;23.15;;;;;;;;;;5115581;28;20212;-61
2023/02/08 09:48:40;;;;;;;35.97;22.75;;;;;;;;;;5115334;28;20651;-61
2023/02/08 09:51:11;;;;;;;34.25;21.83;;;;;;;;;;5115651;28;20184;-61
2023/02/08 09:53:42;;;;;;;36.55;22.88;;;;;;;;;;5115717;28;20525;-64
2023/02/08 09:56:12;;;;;;;38.97;23.27;;;;;;;;;;5115704;28;20667;-62
2023/02/08 09:58:40;;;;;;;33.97;20.95;;;;;;;;;;5115517;28;20283;-61
2023/02/08 10:01:12;;;;;;;37.58;22.40;;;;;;;;;;5115801;28;20198;-62
2023/02/08 10:03:40;;;;;;;37.55;21.85;;;;;;;;;;5115891;28;20646;-65
2023/02/08 10:06:07;;;;;;;34.35;21.60;;;;;;;;;;5115869;28;20284;-67
2023/02/08 10:08:35;;;;;;;39.92;23.95;;;;;;;;;;5115657;28;20579;-62
2023/02/08 10:11:08;;;;;;;38.13;24.25;;;;;;;;;;5115494;28;20192;-60
2023/02/08 10:13:44;;;;;;;35.42;22.08;;;;;;;;;;5115431;28;20192;-61
2023/02/08 10:16:15;;;;;;;36.90;22.45;;;;;;;;;;5115712;28;20195;-61
2023/02/08 10:18:46;;;;;;;37.28;23.40;;;;;;;;;;5115393;28;20618;-60
2023/02/08 10:21:29;;;;;;;36.72;23.80;;;;;;;;;;5115467;28;20188;-62
2023/02/08 10:24:09;;;;;;;33.75;20.77;;;;;;;;;;5115735;28;20218;-61
2023/02/08 10:26:41;;;;;;;35.15;21.58;;;;;;;;;;5115484;28;20188;-67
2023/02/08 10:29:19;;;;;;;39.35;23.77;;;;;;;;;;5115326;28;20188;-64
2023/02/08 10:31:54;;;;;;;38.60;22.27;;;;;;;;;;5115263;28;20192;-60
2023/02/08 10:34:30;;;;;;;42.88;23.52;;;;;;;;;;5115469;28;20210;-60
2023/02/08 10:36:57;;;;;;;42.50;23.23;;;;;;;;;;5115315;28;20211;-59
2023/02/08 10:39:25;;;;;;;40.40;22.35;;;;;;;;;;5115339;28;20240;-59
2023/02/08 10:41:53;;;;;;;36.53;21.98;;;;;;;;;;5115126;28;20227;-60
2023/02/08 10:44:24;;;;;;;32.22;20.73;;;;;;;;;;5114661;28;20231;-60
2023/02/08 10:46:52;;;;;;;37.75;21.55;;;;;;;;;;5124666;27;20212;-59
2023/02/08 10:49:22;;;;;;;30.13;20.52;;;;;;;;;;5115197;28;20595;-59
2023/02/08 10:51:49;;;;;;;35.03;22.58;;;;;;;;;;5126847;27;20196;-60
2023/02/08 10:54:16;;;;;;;35.17;22.25;;;;;;;;;;5123154;27;20202;-60
2023/02/08 10:56:46;;;;;;;35.78;23.13;;;;;;;;;;5114407;28;20188;-60
2023/02/08 10:59:20;;;;;;;34.38;20.05;;;;;;;;;;5114277;28;20699;-64
2023/02/08 11:01:48;;;;;;;31.15;20.90;;;;;;;;;;5114646;28;20199;-64
2023/02/08 11:04:15;;;;;;;33.65;20.40;;;;;;;;;;5114714;28;20220;-60
2023/02/08 11:06:43;;;;;;;41.20;20.50;;;;;;;;;;5114647;28;20578;-60
2023/02/08 11:09:20;;;;;;;31.60;20.40;;;;;;;;;;5114437;28;20190;-61
2023/02/08 11:11:49;;;;;;;37.42;20.10;;;;;;;;;;5114394;28;20576;-62
2023/02/08 11:14:17;;;;;;;31.45;19.38;;;;;;;;;;5114313;28;20233;-59
2023/02/08 11:16:51;;;;;;;31.40;21.05;;;;;;;;;;5114542;28;20196;-59
2023/02/08 11:19:21;;;;;;;35.00;19.80;;;;;;;;;;5114381;28;20226;-59
2023/02/08 11:21:50;;;;;;;32.75;20.67;;;;;;;;;;5114034;28;20189;-61
2023/02/08 11:24:26;;;;;;;32.17;20.17;;;;;;;;;;5114095;28;20220;-64
2023/02/08 11:26:55;;;;;;;35.75;20.98;;;;;;;;;;5114122;28;20288;-59
2023/02/08 11:29:23;;;;;;;31.80;20.00;;;;;;;;;;5114482;28;20232;-64
2023/02/08 11:32:01;;;;;;;32.70;20.98;;;;;;;;;;5113632;28;20188;-59
2023/02/08 11:34:31;;;;;;;36.25;21.17;;;;;;;;;;5114028;28;20227;-60
2023/02/08 11:36:58;;;;;;;34.47;23.92;;;;;;;;;;5113586;28;20458;-59
2023/02/08 11:39:27;;;;;;;38.88;19.55;;;;;;;;;;5114196;28;20199;-59
2023/02/08 11:41:56;;;;;;;35.53;22.02;;;;;;;;;;5113950;28;20192;-60
2023/02/08 11:44:25;;;;;;;36.25;22.20;;;;;;;;;;5113739;28;20469;-60
2023/02/08 11:46:52;;;;;;;31.05;20.20;;;;;;;;;;5113757;28;20528;-55
2023/02/08 11:49:22;;;;;;;35.15;20.20;;;;;;;;;;5114041;28;20208;-61
2023/02/08 11:51:51;;;;;;;34.40;20.83;;;;;;;;;;5113908;28;20555;-59
2023/02/08 11:54:32;;;;;;;37.95;21.10;;;;;;;;;;5113901;28;20250;-60
2023/02/08 11:57:03;;;;;;;34.70;20.35;;;;;;;;;;5113682;28;20822;-60
2023/02/08 11:59:31;;;;;;;32.50;20.90;;;;;;;;;;5113252;28;20686;-60
2023/02/08 12:01:58;;;;;;;30.80;19.75;;;;;;;;;;5113338;28;20636;-60
2023/02/08 12:04:26;;;;;;;30.27;18.83;;;;;;;;;;5113595;28;20261;-60
2023/02/08 12:07:01;;;;;;;31.70;19.40;;;;;;;;;;5113785;28;20223;-59
2023/02/08 12:09:37;;;;;;;35.13;20.10;;;;;;;;;;5113579;28;20199;-60
2023/02/08 12:12:11;;;;;;;35.17;20.00;;;;;;;;;;5113386;28;20192;-60
2023/02/08 12:14:45;;;;;;;41.88;20.98;;;;;;;;;;5113282;28;20192;-60
2023/02/08 12:17:23;;;;;;;31.58;20.20;;;;;;;;;;5113409;28;20217;-60
2023/02/08 12:19:59;;;;;;;32.80;19.85;;;;;;;;;;5113468;28;20614;-60
2023/02/08 12:22:27;;;;;;;28.75;18.95;;;;;;;;;;5112689;28;20193;-63
2023/02/08 12:25:00;;;;;;;32.55;19.27;;;;;;;;;;5113142;28;20216;-62
2023/02/08 12:27:33;;;;;;;36.15;20.52;;;;;;;;;;5113309;28;20184;-61
2023/02/08 12:30:04;;;;;;;30.00;20.20;;;;;;;;;;5113041;28;20198;-64
2023/02/08 12:32:36;;;;;;;31.38;19.52;;;;;;;;;;5113283;28;20643;-61
2023/02/08 12:35:14;;;;;;;29.45;18.42;;;;;;;;;;5113393;28;20668;-63
2023/02/08 12:40:49;;;;;;;29.02;20.02;;;;;;;;;;5055266;28;20647;-62
2023/02/08 12:43:20;;;;;;;32.15;20.05;;;;;;;;;;5115464;28;20184;-62
2023/02/08 12:45:59;;;;;;;26.75;18.77;;;;;;;;;;5117298;28;20235;-61
2023/02/08 12:48:35;;;;;;;28.02;18.88;;;;;;;;;;5117271;28;20709;-62
2023/02/08 12:51:06;;;;;;;30.55;19.50;;;;;;;;;;5117334;28;20184;-61
2023/02/08 12:53:37;;;;;;;32.60;18.77;;;;;;;;;;5117033;28;20596;-60
2023/02/08 12:56:07;;;;;;;26.90;18.92;;;;;;;;;;5117418;28;20232;-59
2023/02/08 12:58:38;;;;;;;30.23;18.13;;;;;;;;;;5117352;28;20598;-60
2023/02/08 13:01:07;;;;;;;31.73;19.13;;;;;;;;;;5117235;28;20185;-62
2023/02/08 13:03:38;;;;;;;33.45;19.40;;;;;;;;;;5116721;28;20194;-63
2023/02/08 13:06:08;;;;;;;29.55;20.80;;;;;;;;;;5116887;28;20216;-61
2023/02/08 13:08:40;;;;;;;32.17;19.52;;;;;;;;;;5117198;28;20285;-61
2023/02/08 13:11:11;;;;;;;30.15;18.83;;;;;;;;;;5116965;28;20189;-60
2023/02/08 13:13:39;;;;;;;26.85;18.00;;;;;;;;;;5116878;28;20219;-62
2023/02/08 13:16:09;;;;;;;33.30;19.92;;;;;;;;;;5116713;28;20563;-64
2023/02/08 13:18:37;;;;;;;23.90;17.58;;;;;;;;;;5116773;28;20221;-61
2023/02/08 13:21:07;;;;;;;26.33;18.60;;;;;;;;;;5116717;28;20217;-61
2023/02/08 13:23:37;;;;;;;28.45;18.38;;;;;;;;;;5116608;28;20648;-63
2023/02/08 13:26:08;;;;;;;27.58;18.10;;;;;;;;;;5116655;28;20552;-63
2023/02/08 13:28:35;;;;;;;26.08;17.70;;;;;;;;;;5116650;28;20530;-61
2023/02/08 13:31:04;;;;;;;30.88;17.75;;;;;;;;;;5116366;28;20185;-65
2023/02/08 13:33:34;;;;;;;29.23;18.85;;;;;;;;;;5116239;28;20205;-64
2023/02/08 13:36:01;;;;;;;26.35;18.80;;;;;;;;;;5116347;28;20604;-62
2023/02/08 13:38:29;;;;;;;30.10;16.60;;;;;;;;;;5116468;28;20283;-61
2023/02/08 13:41:05;;;;;;;28.00;17.42;;;;;;;;;;5121520;27;20666;-60
2023/02/08 13:43:35;;;;;;;29.02;18.08;;;;;;;;;;5116193;28;20195;-64
2023/02/08 13:46:02;;;;;;;27.35;17.75;;;;;;;;;;5115886;28;20232;-63
2023/02/08 13:48:41;;;;;;;25.88;17.55;;;;;;;;;;5115823;28;20670;-58
2023/02/08 13:51:28;;;;;;;30.20;19.67;;;;;;;;;;5116259;28;20299;-61
2023/02/08 13:54:10;;;;;;;26.60;17.55;;;;;;;;;;5115569;28;20203;-64
2023/02/08 13:56:42;;;;;;;30.67;20.13;;;;;;;;;;5116237;28;20236;-63
2023/02/08 13:59:24;;;;;;;24.27;17.70;;;;;;;;;;5116052;28;20646;-64
2023/02/08 14:02:09;;;;;;;27.75;18.33;;;;;;;;;;5115836;28;20189;-64
2023/02/08 14:04:37;;;;;;;27.77;18.00;;;;;;;;;;5115404;28;20529;-65
2023/02/08 14:07:07;;;;;;;30.13;19.60;;;;;;;;;;5115911;28;20198;-61
2023/02/08 14:09:41;;;;;;;27.45;18.80;;;;;;;;;;5116515;28;20545;-62
2023/02/08 14:12:14;;;;;;;27.48;18.98;;;;;;;;;;5116947;27;20188;-62
2023/02/08 14:14:41;;;;;;;28.05;17.38;;;;;;;;;;5130389;27;20229;-62
2023/02/08 14:17:19;;;;;;;29.83;18.60;;;;;;;;;;5125922;27;20185;-62
2023/02/08 14:19:56;;;;;;;28.55;19.25;;;;;;;;;;5115480;28;20185;-62
2023/02/08 14:22:23;;;;;;;23.60;17.00;;;;;;;;;;5115381;28;20199;-62
2023/02/08 14:25:00;;;;;;;31.38;17.38;;;;;;;;;;5115170;28;20216;-61
2023/02/08 14:27:31;;;;;;;27.90;18.75;;;;;;;;;;5114880;28;20694;-61
2023/02/08 14:29:59;;;;;;;30.38;18.90;;;;;;;;;;5115773;28;20193;-60
2023/02/08 14:32:27;;;;;;;29.98;18.55;;;;;;;;;;5115545;28;20289;-60
2023/02/08 14:34:59;;;;;;;34.90;17.40;;;;;;;;;;5115314;28;20192;-60